AKST,Max TemperatureF,Mean TemperatureF,Min TemperatureF,Max Dew PointF,MeanDew PointF,Min DewpointF,Max Humidity, Mean Humidity, Min Humidity, Max Sea Level PressureIn, Mean Sea Level PressureIn, Min Sea Level PressureIn, Max VisibilityMiles, Mean VisibilityMiles, Min VisibilityMiles, Max Wind SpeedMPH, Mean Wind SpeedMPH, Max Gust SpeedMPH,PrecipitationIn, CloudCover, Events, WindDirDegrees
2012-12-1,30,27,24,19,17,12,80,65,51,29.31,29.26,29.19,10,9,5,20,14,29,0.00,8,,91
2012-12-2,28,27,26,21,20,18,80,74,64,29.29,29.17,29.12,10,6,2,16,10,21,0.00,8,,92
2012-12-3,33,30,26,27,23,19,86,79,69,29.49,29.38,29.24,10,7,2,21,12,26,0.00,8,,86
2012-12-4,28,26,24,23,21,19,86,79,69,29.49,29.27,29.10,10,5,1,10,6,,0.00,8,,336
2012-12-5,32,29,26,27,23,19,86,79,69,29.83,29.68,29.49,10,8,1,12,4,,0.00,8,,19
2012-12-6,30,27,24,25,21,18,93,79,69,29.84,29.77,29.62,10,8,1,10,6,,0.00,8,,329
2012-12-7,26,24,21,23,19,16,86,79,74,30.17,29.93,29.69,10,9,1,10,6,,0.00,8,,331
2012-12-8,32,26,21,28,19,14,93,78,69,30.24,30.16,29.90,10,8,1,17,6,23,0.00,6,,358
2012-12-9,39,34,28,36,32,25,93,86,75,30.09,29.98,29.86,10,8,2,20,10,25,0.00,8,,111
2012-12-10,41,39,37,36,34,32,93,86,76,30.10,29.75,29.35,10,8,5,18,10,25,0.00,8,,115
2012-12-11,39,36,33,36,32,28,93,85,75,29.88,29.59,29.35,10,10,10,13,8,18,0.00,7,,300
2012-12-12,37,34,30,30,28,25,87,81,70,29.91,29.81,29.56,10,9,7,17,6,22,0.23,5,,167
2012-12-13,42,38,35,36,31,28,93,76,57,29.71,29.58,29.47,10,10,3,15,4,22,0.06,7,,224
2012-12-14,39,38,37,34,31,28,87,77,70,29.71,29.39,29.01,10,9,7,26,14,34,0.75,8,,119
2012-12-15,39,36,33,34,30,27,87,78,70,29.28,29.14,28.98,10,10,7,21,11,29,0.16,7,,148
2012-12-16,35,32,28,30,29,25,87,82,75,29.28,29.26,29.24,10,9,3,16,7,20,0.03,6,,121
2012-12-17,30,28,26,27,22,19,86,80,69,29.69,29.44,29.24,10,10,10,8,5,,0.00,3,,135
2012-12-18,33,28,23,21,19,16,80,71,56,29.72,29.57,29.28,10,10,10,15,6,22,0.00,3,,107
2012-12-19,35,34,32,25,20,18,75,58,52,29.47,29.28,29.18,10,10,4,21,14,28,0.00,7,,86
2012-12-20,33,30,26,18,13,9,55,48,43,29.81,29.64,29.49,10,10,10,20,15,28,0.00,2,,86
2012-12-21,26,24,23,9,7,3,50,45,40,29.89,29.85,29.82,10,10,10,20,16,30,0.00,2,,87
2012-12-22,26,24,23,10,8,5,54,48,43,29.82,29.73,29.67,10,10,10,22,16,32,0.00,4,,95
2012-12-23,24,22,21,10,8,3,63,54,43,30.01,29.84,29.72,10,10,10,18,13,28,0.00,3,,96
2012-12-24,24,20,17,10,9,7,63,58,46,30.11,30.04,29.94,10,10,10,16,9,22,0.00,3,,71
2012-12-25,30,24,17,16,10,7,68,59,47,29.95,29.83,29.76,10,10,10,18,9,24,0.00,4,,16
2012-12-26,19,17,15,10,8,3,73,67,58,29.99,29.92,29.81,10,10,10,9,6,,0.00,0,,337
2012-12-27,33,25,17,30,17,10,87,78,68,29.97,29.84,29.78,10,6,0,12,7,,0.00,8,,333
2012-12-28,30,27,24,27,24,19,93,86,80,30.14,29.96,29.84,10,7,2,8,5,,0.04,8,,332
2012-12-29,37,32,28,34,28,25,93,85,75,30.21,30.17,30.09,10,10,8,14,4,,0.23,8,,336
2012-12-30,42,38,33,37,35,28,87,81,70,30.10,29.96,29.82,10,10,7,18,9,23,0.21,8,,98
2012-12-31,42,40,37,37,35,34,93,85,70,30.40,30.18,29.82,10,10,5,16,8,23,0.25,8,,126